Time;durP1;ratioP1;P1;durP2;ratioP2;P2;SDS_P1;SDS_P2;PMS_P1;PMS_P2;Temp;Humidity;BMP_temperature;BMP_pressure;BME280_temperature;BME280_humidity;BME280_pressure;Samples;Min_cycle;Max_cycle;Signal;HPM_P1;HPM_P2
2022/06/09 00:03:05;;;;;;;4.45;4.10;;;22.00;99.90;;;;;;10213001;29;20289;-85
2022/06/09 00:08:09;;;;;;;4.32;3.92;;;22.10;99.90;;;;;;10212410;29;20348;-85
2022/06/09 00:13:12;;;;;;;4.70;4.30;;;22.00;99.90;;;;;;10228949;29;20199;-85
2022/06/09 00:18:15;;;;;;;5.25;4.75;;;22.00;99.90;;;;;;10222115;28;20364;-85
2022/06/09 00:23:19;;;;;;;4.63;4.20;;;22.00;99.90;;;;;;10246612;28;20297;-85
2022/06/09 00:28:22;;;;;;;4.68;4.38;;;22.00;99.90;;;;;;10268367;28;20276;-85
2022/06/09 00:33:25;;;;;;;4.78;4.38;;;22.00;99.90;;;;;;10250700;28;20352;-85
2022/06/09 00:38:27;;;;;;;4.90;4.50;;;22.00;99.90;;;;;;10266373;28;20209;-85
2022/06/09 00:43:31;;;;;;;4.25;3.95;;;21.90;99.90;;;;;;10268215;28;20201;-85
2022/06/09 00:49:04;;;;;;;5.07;4.68;;;21.90;99.90;;;;;;10266699;28;20222;-85
2022/06/09 00:54:12;;;;;;;4.15;3.85;;;21.90;99.90;;;;;;10249649;28;20276;-85
2022/06/09 00:59:19;;;;;;;5.13;4.72;;;21.90;99.90;;;;;;10269037;28;20202;-85
2022/06/09 01:04:22;;;;;;;5.35;4.85;;;21.90;99.90;;;;;;10244983;28;20304;-85
2022/06/09 01:09:26;;;;;;;5.00;4.60;;;21.90;99.90;;;;;;10249163;28;20711;-85
2022/06/09 01:14:32;;;;;;;5.03;4.63;;;21.90;99.90;;;;;;10258525;28;20420;-85
2022/06/09 01:19:50;;;;;;;4.82;4.32;;;21.90;99.90;;;;;;10260532;28;20416;-85
2022/06/09 01:25:14;;;;;;;4.95;4.55;;;21.90;99.90;;;;;;10260871;28;20657;-85
2022/06/09 01:30:57;;;;;;;4.70;4.25;;;21.80;99.90;;;;;;10265716;28;20330;-85
2022/06/09 01:36:03;;;;;;;5.13;4.72;;;21.80;99.90;;;;;;10264844;28;20290;-85
2022/06/09 01:41:06;;;;;;;5.13;4.75;;;21.80;99.90;;;;;;10267135;28;20397;-85
2022/06/09 01:46:25;;;;;;;4.63;3.83;;;21.80;99.90;;;;;;10265771;28;20288;-85
2022/06/09 01:51:32;;;;;;;5.93;5.43;;;21.80;99.90;;;;;;10267907;28;20315;-85
2022/06/09 01:56:48;;;;;;;4.75;4.20;;;21.80;99.90;;;;;;10268269;28;20272;-85
2022/06/09 02:02:07;;;;;;;5.80;5.30;;;21.80;99.90;;;;;;10258310;28;20275;-86
2022/06/09 02:07:12;;;;;;;7.82;5.15;;;21.70;99.90;;;;;;10261076;28;20276;-85
2022/06/09 02:12:22;;;;;;;5.07;4.65;;;21.80;99.90;;;;;;10265382;28;20345;-85
2022/06/09 02:17:25;;;;;;;5.40;4.90;;;21.70;99.90;;;;;;10252853;28;20762;-85
2022/06/09 02:22:28;;;;;;;5.65;5.20;;;21.70;99.90;;;;;;10217223;29;20316;-85
2022/06/09 02:27:31;;;;;;;5.07;4.60;;;21.70;99.90;;;;;;10222637;29;20202;-86
2022/06/09 02:32:34;;;;;;;5.55;5.15;;;21.70;99.90;;;;;;10219294;29;20739;-86
2022/06/09 02:37:36;;;;;;;5.22;4.80;;;21.60;99.90;;;;;;10248316;29;21014;-86
2022/06/09 02:42:39;;;;;;;5.40;5.00;;;21.70;99.90;;;;;;10239995;29;20282;-86
2022/06/09 02:47:41;;;;;;;5.30;4.90;;;21.70;99.90;;;;;;10226834;29;20247;-86
2022/06/09 02:52:44;;;;;;;6.13;5.53;;;21.70;99.90;;;;;;10228348;29;20316;-86
2022/06/09 02:57:48;;;;;;;5.63;5.13;;;21.70;99.90;;;;;;10232334;29;20286;-86
2022/06/09 03:02:55;;;;;;;6.18;5.63;;;21.70;99.90;;;;;;10214482;29;20238;-86
2022/06/09 03:07:59;;;;;;;6.00;5.50;;;21.70;99.90;;;;;;10214634;29;20229;-86
2022/06/09 03:13:03;;;;;;;5.40;4.90;;;21.70;99.90;;;;;;10210843;29;20624;-86
2022/06/09 03:18:06;;;;;;;5.40;5.00;;;21.70;99.90;;;;;;10224824;28;20254;-86
2022/06/09 03:23:08;;;;;;;5.43;5.03;;;21.70;99.90;;;;;;10224769;29;21031;-86
2022/06/09 03:28:11;;;;;;;7.63;6.35;;;21.70;99.90;;;;;;10219929;29;20314;-86
2022/06/09 03:33:14;;;;;;;5.78;5.38;;;21.70;99.90;;;;;;10203245;29;20317;-86
2022/06/09 03:38:16;;;;;;;5.75;5.25;;;21.70;99.90;;;;;;10206373;29;20646;-86
2022/06/09 03:43:19;;;;;;;5.75;5.25;;;21.70;99.90;;;;;;10221234;29;20300;-86
2022/06/09 03:48:22;;;;;;;6.15;5.65;;;21.70;99.90;;;;;;10197560;29;20281;-86
2022/06/09 03:53:24;;;;;;;5.88;5.38;;;21.70;99.90;;;;;;10199310;29;20242;-86
2022/06/09 03:58:27;;;;;;;6.30;5.70;;;21.70;99.90;;;;;;10189754;29;20329;-86
2022/06/09 04:03:30;;;;;;;6.30;5.70;;;21.70;99.90;;;;;;10184414;29;20782;-86
2022/06/09 04:08:33;;;;;;;5.50;5.03;;;21.70;99.90;;;;;;10189322;29;20353;-86
2022/06/09 04:13:37;;;;;;;6.07;5.47;;;21.80;99.90;;;;;;10217903;29;20298;-86
2022/06/09 04:18:39;;;;;;;6.13;5.65;;;21.80;99.90;;;;;;10217761;29;20448;-86
2022/06/09 04:23:42;;;;;;;5.82;5.32;;;21.80;99.90;;;;;;10218454;29;20202;-87
2022/06/09 04:28:45;;;;;;;6.47;5.90;;;21.80;99.90;;;;;;10217650;29;20286;-86
2022/06/09 04:33:51;;;;;;;6.10;5.50;;;21.80;99.90;;;;;;10222286;28;20214;-86
2022/06/09 04:38:56;;;;;;;6.45;5.95;;;21.80;99.90;;;;;;10227515;29;20674;-86
2022/06/09 04:43:59;;;;;;;5.97;5.47;;;21.80;99.90;;;;;;10221849;29;20249;-86
2022/06/09 04:49:02;;;;;;;6.65;6.05;;;21.80;99.90;;;;;;10208584;29;20285;-86
2022/06/09 04:54:05;;;;;;;6.38;5.78;;;21.80;99.90;;;;;;10227390;29;20202;-86
2022/06/09 04:59:08;;;;;;;6.85;6.25;;;21.90;99.90;;;;;;10227274;29;20646;-84
2022/06/09 05:04:11;;;;;;;6.60;5.95;;;21.90;99.90;;;;;;10229961;29;20281;-86
2022/06/09 05:09:13;;;;;;;5.75;5.35;;;21.90;99.90;;;;;;10248485;29;20341;-85
2022/06/09 05:14:16;;;;;;;6.47;5.97;;;22.00;99.90;;;;;;10241576;28;20298;-85
2022/06/09 05:19:18;;;;;;;7.45;6.75;;;22.00;99.90;;;;;;10195692;29;20309;-85
2022/06/09 05:24:21;;;;;;;6.60;6.00;;;22.00;99.90;;;;;;10229421;29;20262;-85
2022/06/09 05:29:24;;;;;;;6.53;5.93;;;22.00;99.90;;;;;;10229491;29;20242;-85
2022/06/09 05:34:26;;;;;;;6.85;6.15;;;22.10;99.90;;;;;;10225452;29;20289;-85
2022/06/09 05:44:53;;;;;;;6.93;6.30;;;22.10;99.90;;;;;;10226581;29;20342;-85
2022/06/09 05:49:56;;;;;;;6.43;5.82;;;22.10;99.90;;;;;;10202947;29;20297;-85
2022/06/09 05:54:58;;;;;;;7.07;5.80;;;22.10;99.90;;;;;;10206556;29;20914;-86
2022/06/09 06:00:03;;;;;;;7.53;6.72;;;22.10;99.90;;;;;;10226969;29;20281;-85
2022/06/09 06:10:35;;;;;;;7.25;6.65;;;22.20;99.90;;;;;;10249509;29;20289;-85
2022/06/09 06:15:37;;;;;;;6.47;5.97;;;22.30;99.90;;;;;;10216949;29;20207;-85
2022/06/09 06:20:40;;;;;;;6.43;5.93;;;22.30;99.90;;;;;;10259816;28;20295;-85
2022/06/09 06:25:42;;;;;;;6.97;6.28;;;22.40;99.90;;;;;;10288598;28;20716;-85
2022/06/09 06:30:45;;;;;;;6.88;6.28;;;22.40;99.90;;;;;;10288966;28;20304;-85
2022/06/09 06:35:47;;;;;;;6.18;5.68;;;22.40;99.90;;;;;;10284452;28;20241;-86
2022/06/09 06:40:50;;;;;;;7.18;6.57;;;22.40;99.90;;;;;;10243314;28;20237;-85
2022/06/09 06:45:53;;;;;;;6.32;5.80;;;22.40;99.90;;;;;;10260011;28;20230;-86
2022/06/09 06:50:56;;;;;;;7.32;6.68;;;22.50;99.90;;;;;;10250853;28;20253;-85
2022/06/09 06:55:59;;;;;;;7.28;6.68;;;22.60;99.90;;;;;;10252080;28;20234;-84
2022/06/09 07:01:02;;;;;;;18.30;13.05;;;22.50;99.90;;;;;;10265144;28;20233;-85
2022/06/09 07:06:05;;;;;;;7.25;6.60;;;22.60;99.90;;;;;;10263439;28;20232;-84
2022/06/09 07:11:09;;;;;;;7.03;6.43;;;22.60;99.90;;;;;;10274965;28;20289;-84
2022/06/09 07:16:12;;;;;;;7.13;6.53;;;22.50;99.90;;;;;;10265508;28;20270;-84
2022/06/09 07:21:34;;;;;;;6.45;5.95;;;22.60;99.90;;;;;;10221605;29;20305;-84
2022/06/09 07:26:37;;;;;;;7.40;6.70;;;22.60;99.90;;;;;;10203105;29;20242;-84
2022/06/09 07:31:40;;;;;;;6.30;5.78;;;22.80;99.90;;;;;;10230909;29;20254;-84
2022/06/09 07:36:43;;;;;;;6.15;5.63;;;22.90;99.90;;;;;;10210152;29;20255;-84
2022/06/09 07:41:46;;;;;;;7.75;7.05;;;22.90;99.90;;;;;;10224346;29;20234;-85
2022/06/09 07:46:49;;;;;;;6.95;6.30;;;23.00;99.90;;;;;;10221730;29;20298;-85
2022/06/09 07:51:51;;;;;;;6.65;6.05;;;23.00;99.90;;;;;;10203244;29;20288;-85
2022/06/09 07:56:54;;;;;;;6.93;6.32;;;23.00;99.90;;;;;;10223172;29;20235;-85
2022/06/09 08:01:56;;;;;;;7.38;6.68;;;23.10;99.90;;;;;;10231342;29;20691;-84
2022/06/09 08:07:04;;;;;;;9.00;8.10;;;23.00;99.90;;;;;;10221776;29;20289;-84
2022/06/09 08:12:13;;;;;;;7.57;6.88;;;22.90;99.90;;;;;;10210459;29;20316;-84
2022/06/09 08:17:15;;;;;;;6.68;6.13;;;22.90;99.90;;;;;;10219958;29;20238;-85
2022/06/09 08:22:24;;;;;;;6.90;6.30;;;22.90;99.90;;;;;;10221827;29;20241;-84
2022/06/09 08:27:26;;;;;;;7.03;6.43;;;22.90;99.90;;;;;;10232438;29;20255;-84
2022/06/09 08:32:29;;;;;;;7.03;6.43;;;22.80;99.90;;;;;;10213597;29;20300;-84
2022/06/09 08:37:32;;;;;;;7.13;6.53;;;22.80;99.90;;;;;;10234505;29;20230;-85
2022/06/09 08:43:08;;;;;;;6.93;6.32;;;22.90;99.90;;;;;;10229631;29;20259;-84
2022/06/09 08:48:34;;;;;;;6.60;6.00;;;22.90;99.90;;;;;;10236756;29;20281;-85
2022/06/09 08:53:47;;;;;;;6.72;6.22;;;22.80;99.90;;;;;;10207299;29;20250;-84
2022/06/09 08:59:03;;;;;;;7.22;6.53;;;22.60;99.90;;;;;;10217572;29;20207;-84
2022/06/09 09:04:11;;;;;;;8.02;6.82;;;22.60;99.90;;;;;;10222392;29;20237;-85
2022/06/09 09:09:22;;;;;;;14.95;13.45;;;22.60;99.90;;;;;;10220281;29;20770;-84
2022/06/09 09:14:34;;;;;;;7.15;6.55;;;22.50;99.90;;;;;;10210581;29;20258;-84
2022/06/09 09:19:59;;;;;;;6.32;5.82;;;22.50;99.90;;;;;;10239566;28;20273;-84
2022/06/09 09:25:25;;;;;;;7.00;6.32;;;22.40;99.90;;;;;;10251144;29;20239;-85
2022/06/09 09:30:43;;;;;;;7.07;6.55;;;22.40;99.90;;;;;;10251435;29;20281;-85
2022/06/09 09:35:49;;;;;;;6.50;6.00;;;22.50;99.90;;;;;;10232285;29;20312;-85
2022/06/09 09:40:59;;;;;;;6.90;6.30;;;22.40;99.90;;;;;;10220064;29;20770;-85
2022/06/09 09:46:02;;;;;;;7.18;6.53;;;22.50;99.90;;;;;;10214390;29;20261;-85
2022/06/09 09:51:11;;;;;;;6.97;6.38;;;22.70;99.90;;;;;;10249258;29;20254;-85
2022/06/09 09:56:17;;;;;;;6.57;6.00;;;22.80;99.90;;;;;;10249177;29;20241;-85
2022/06/09 10:01:19;;;;;;;8.45;7.68;;;22.90;99.90;;;;;;10232007;29;20691;-85
2022/06/09 10:12:31;;;;;;;7.35;6.70;;;22.90;99.90;;;;;;10192714;29;20250;-85
2022/06/09 10:17:54;;;;;;;7.72;7.03;;;23.00;99.90;;;;;;10225468;28;20257;-84
2022/06/09 10:23:16;;;;;;;7.03;6.43;;;23.00;99.90;;;;;;10250191;28;20679;-85
2022/06/09 10:28:43;;;;;;;7.28;6.68;;;23.10;99.90;;;;;;10266258;28;20237;-85
2022/06/09 10:34:01;;;;;;;19.98;15.35;;;23.40;99.90;;;;;;10244667;28;20317;-85
2022/06/09 10:39:16;;;;;;;8.15;7.43;;;23.50;99.90;;;;;;10279368;28;20225;-85
2022/06/09 10:44:46;;;;;;;7.68;6.97;;;23.50;99.90;;;;;;10277498;28;20233;-85
2022/06/09 10:55:31;;;;;;;10.48;9.45;;;23.70;99.90;;;;;;10256079;28;20602;-85
2022/06/09 11:00:45;;;;;;;11.63;10.45;;;23.80;99.90;;;;;;10267033;28;20281;-86
2022/06/09 11:06:07;;;;;;;14.38;12.32;;;24.00;99.90;;;;;;10250224;28;20356;-85
2022/06/09 11:11:39;;;;;;;14.57;12.50;;;24.20;99.90;;;;;;10265851;28;20288;-85
2022/06/09 11:17:05;;;;;;;7.65;6.95;;;24.10;99.90;;;;;;10244682;28;20257;-84
2022/06/09 11:22:24;;;;;;;9.13;8.23;;;23.90;99.90;;;;;;10246913;28;20234;-85
2022/06/09 11:27:29;;;;;;;6.97;6.38;;;24.00;99.90;;;;;;10265712;28;20253;-85
2022/06/09 11:32:54;;;;;;;6.60;6.00;;;23.90;99.90;;;;;;10251705;28;20249;-85
2022/06/09 11:38:12;;;;;;;20.23;14.55;;;23.70;99.90;;;;;;10262435;28;20230;-85
2022/06/09 11:43:22;;;;;;;7.07;6.47;;;23.70;99.90;;;;;;10269638;28;20802;-85
2022/06/09 11:48:35;;;;;;;11.15;10.02;;;23.70;99.90;;;;;;10254636;28;20272;-85
2022/06/09 11:53:47;;;;;;;7.63;7.03;;;23.80;99.90;;;;;;10251320;28;20258;-86
2022/06/09 11:58:51;;;;;;;7.47;6.85;;;24.00;99.90;;;;;;10274778;28;20229;-85
2022/06/09 12:09:50;;;;;;;8.10;7.45;;;23.90;99.90;;;;;;11844630;23;20296;-84
2022/06/09 12:15:11;;;;;;;10.18;9.10;;;23.70;99.90;;;;;;10252491;28;20308;-85
2022/06/09 12:20:46;;;;;;;8.00;7.30;;;23.40;99.90;;;;;;10276130;28;20229;-85
2022/06/09 12:26:10;;;;;;;11.88;10.68;;;23.50;99.90;;;;;;10125322;29;20308;-84
2022/06/09 12:31:22;;;;;;;7.45;6.85;;;23.60;99.90;;;;;;10132306;29;20311;-84
2022/06/09 12:36:47;;;;;;;15.63;11.07;;;24.00;99.90;;;;;;10137192;29;20299;-84
2022/06/09 12:41:58;;;;;;;7.30;6.70;;;24.10;99.90;;;;;;10147043;29;20247;-86
2022/06/09 12:47:15;;;;;;;7.40;6.70;;;24.20;99.90;;;;;;10154897;29;20299;-86
2022/06/09 12:52:32;;;;;;;12.23;10.98;;;24.00;99.90;;;;;;10142412;29;20320;-86
2022/06/09 12:57:44;;;;;;;7.75;7.05;;;24.20;99.90;;;;;;10153284;29;20238;-86
2022/06/09 13:03:30;;;;;;;8.20;7.47;;;24.10;99.90;;;;;;10263355;28;20268;-85
2022/06/09 13:08:45;;;;;;;11.48;9.20;;;23.70;99.90;;;;;;10267737;28;20237;-83
2022/06/09 13:13:48;;;;;;;8.52;7.72;;;23.60;99.90;;;;;;10255112;28;20304;-83
2022/06/09 13:18:59;;;;;;;8.05;7.40;;;23.70;99.90;;;;;;10268033;28;20636;-83
2022/06/09 13:24:04;;;;;;;10.93;8.55;;;23.90;99.90;;;;;;10274618;28;20238;-84
2022/06/09 13:29:15;;;;;;;8.73;7.88;;;23.50;99.90;;;;;;10262018;28;20237;-83
2022/06/09 13:34:33;;;;;;;10.75;8.98;;;23.50;99.90;;;;;;10272295;28;20249;-84
2022/06/09 13:39:43;;;;;;;8.82;8.10;;;23.70;99.90;;;;;;10284680;28;20253;-84
2022/06/09 13:44:48;;;;;;;6.90;6.40;;;23.40;99.90;;;;;;10263079;28;20221;-84
2022/06/09 13:50:14;;;;;;;10.00;8.38;;;23.20;99.90;;;;;;10289038;28;20958;-84
2022/06/09 13:55:26;;;;;;;8.00;7.25;;;23.00;99.90;;;;;;10241471;28;20711;-84
2022/06/09 14:00:37;;;;;;;9.13;7.55;;;22.90;99.90;;;;;;10252901;28;20234;-84
2022/06/09 14:05:45;;;;;;;8.43;7.63;;;22.90;99.90;;;;;;9584132;28;9999757;-84
2022/06/09 14:10:48;;;;;;;11.32;10.25;;;23.00;99.90;;;;;;10263607;28;20303;-84
2022/06/09 14:15:52;;;;;;;8.75;7.93;;;22.90;99.90;;;;;;10282910;28;20669;-84
2022/06/09 14:20:57;;;;;;;9.27;8.35;;;22.70;99.90;;;;;;10251670;28;20694;-84
2022/06/09 14:26:12;;;;;;;8.18;7.40;;;22.50;99.90;;;;;;10280200;28;20292;-84
2022/06/09 14:31:17;;;;;;;7.82;7.10;;;22.40;99.90;;;;;;10262381;28;20309;-84
2022/06/09 14:36:25;;;;;;;24.60;8.38;;;22.40;99.90;;;;;;10279798;28;20234;-84
2022/06/09 14:41:28;;;;;;;8.25;7.55;;;22.50;99.90;;;;;;10251200;28;20699;-83
2022/06/09 14:46:34;;;;;;;7.97;7.28;;;22.40;99.90;;;;;;10256223;28;20237;-85
2022/06/09 14:51:38;;;;;;;9.05;7.60;;;22.60;99.90;;;;;;10274629;28;20311;-84
2022/06/09 14:56:44;;;;;;;8.02;7.32;;;22.60;99.90;;;;;;10282627;28;20272;-85
2022/06/09 15:01:47;;;;;;;8.65;7.90;;;22.70;99.90;;;;;;10278358;28;20296;-85
2022/06/09 15:06:50;;;;;;;7.88;7.28;;;22.70;99.90;;;;;;10248842;28;20240;-85
2022/06/09 15:11:53;;;;;;;7.40;6.70;;;23.00;99.90;;;;;;10275665;28;20740;-85
2022/06/09 15:16:56;;;;;;;8.77;7.97;;;23.00;99.90;;;;;;10225976;29;20257;-85
2022/06/09 15:22:08;;;;;;;9.23;8.32;;;23.10;99.90;;;;;;10227036;28;20762;-85
2022/06/09 15:27:28;;;;;;;8.02;7.32;;;23.40;99.90;;;;;;10212254;29;20686;-85
2022/06/09 15:32:30;;;;;;;8.50;7.70;;;23.50;99.90;;;;;;10269550;28;20261;-85
2022/06/09 15:37:33;;;;;;;9.35;8.38;;;23.50;99.90;;;;;;10251011;28;20252;-86
2022/06/09 15:42:35;;;;;;;12.05;10.23;;;23.20;99.90;;;;;;10244069;28;20241;-86
2022/06/09 15:47:39;;;;;;;8.38;7.68;;;23.30;99.90;;;;;;10256850;28;20238;-87
2022/06/09 15:52:42;;;;;;;7.60;6.93;;;23.20;99.90;;;;;;10264544;28;20286;-86
2022/06/09 15:57:45;;;;;;;8.40;7.65;;;23.10;99.90;;;;;;10229575;29;20242;-86
2022/06/09 16:02:48;;;;;;;8.25;7.55;;;23.00;99.90;;;;;;10236928;29;20241;-86
2022/06/09 16:07:51;;;;;;;7.38;6.78;;;23.00;99.90;;;;;;10252303;28;20233;-87
2022/06/09 16:12:54;;;;;;;7.65;7.05;;;23.00;99.90;;;;;;10283989;28;20327;-87
2022/06/09 16:17:57;;;;;;;7.07;6.47;;;22.90;99.90;;;;;;10268264;28;20233;-86
2022/06/09 16:22:59;;;;;;;7.50;6.85;;;22.80;99.90;;;;;;10256543;28;20265;-86
2022/06/09 16:28:03;;;;;;;8.25;7.55;;;22.70;99.90;;;;;;10262005;28;20238;-87
2022/06/09 16:33:07;;;;;;;10.40;9.30;;;22.60;99.90;;;;;;10292117;28;20253;-86
2022/06/09 16:38:12;;;;;;;7.93;7.22;;;22.60;99.90;;;;;;10276654;28;20248;-87
2022/06/09 16:43:16;;;;;;;7.80;7.13;;;22.50;99.90;;;;;;10273393;28;20245;-86
2022/06/09 16:48:20;;;;;;;8.75;7.95;;;22.50;99.90;;;;;;10285073;28;20636;-87
2022/06/09 16:53:23;;;;;;;7.38;6.78;;;22.40;99.90;;;;;;10266840;28;20257;-86
2022/06/09 16:58:27;;;;;;;9.00;8.18;;;22.30;99.90;;;;;;10275539;28;20284;-88
2022/06/09 17:03:29;;;;;;;10.10;9.10;;;22.30;99.90;;;;;;10283617;28;20234;-87
2022/06/09 17:08:36;;;;;;;11.23;9.50;;;22.30;99.90;;;;;;10266790;28;20245;-86
2022/06/09 17:13:39;;;;;;;13.70;9.48;;;22.30;99.90;;;;;;10278058;28;20880;-85
2022/06/09 17:18:42;;;;;;;10.13;9.07;;;22.20;99.90;;;;;;10261167;28;20246;-85
2022/06/09 17:23:46;;;;;;;11.23;10.07;;;22.10;99.90;;;;;;10250858;28;20246;-85
2022/06/09 17:28:53;;;;;;;11.55;10.45;;;22.10;99.90;;;;;;10265554;28;20656;-84
2022/06/09 17:33:56;;;;;;;11.85;10.60;;;22.00;99.90;;;;;;10252132;28;20309;-84
2022/06/09 17:38:58;;;;;;;11.55;9.50;;;21.90;99.90;;;;;;10250470;28;20297;-84
2022/06/09 17:44:01;;;;;;;11.05;9.23;;;21.80;99.90;;;;;;10263646;28;20269;-84
2022/06/09 17:49:04;;;;;;;10.50;9.50;;;21.90;99.90;;;;;;10280486;28;20226;-84
2022/06/09 17:54:07;;;;;;;10.90;8.90;;;21.70;99.90;;;;;;10261663;28;20269;-84
2022/06/09 17:59:10;;;;;;;11.65;8.95;;;21.80;99.90;;;;;;10264778;28;20242;-84
2022/06/09 18:04:12;;;;;;;13.55;9.95;;;21.70;99.90;;;;;;10258234;28;20243;-84
2022/06/09 18:09:15;;;;;;;11.98;10.77;;;21.50;99.90;;;;;;10261229;28;20234;-84
2022/06/09 18:14:18;;;;;;;11.45;10.35;;;21.40;99.90;;;;;;10267340;28;20336;-86
2022/06/09 18:19:20;;;;;;;14.82;11.13;;;20.80;99.90;;;;;;10263181;28;20677;-86
2022/06/09 18:24:23;;;;;;;12.70;11.43;;;20.30;99.90;;;;;;10237432;28;20234;-85
2022/06/09 18:29:25;;;;;;;12.13;10.57;;;20.60;99.90;;;;;;10263541;28;20638;-86
2022/06/09 18:34:28;;;;;;;10.70;9.68;;;20.90;99.90;;;;;;10263337;28;20253;-86
2022/06/09 18:39:31;;;;;;;12.07;9.85;;;21.00;99.90;;;;;;10244379;28;20238;-85
2022/06/09 18:44:34;;;;;;;10.50;9.48;;;20.90;99.90;;;;;;10233874;28;20685;-85
2022/06/09 18:49:36;;;;;;;11.82;10.52;;;21.00;99.90;;;;;;10269290;28;20233;-86
2022/06/09 18:54:39;;;;;;;11.25;10.10;;;21.10;99.90;;;;;;10286672;28;20785;-85
2022/06/09 18:59:41;;;;;;;11.93;10.63;;;21.10;99.90;;;;;;10265163;28;20242;-85
2022/06/09 19:04:44;;;;;;;13.18;11.82;;;20.90;99.90;;;;;;10258774;28;20709;-86
2022/06/09 19:09:46;;;;;;;11.95;10.10;;;20.50;99.90;;;;;;10265461;28;20277;-87
2022/06/09 19:15:10;;;;;;;11.13;10.02;;;20.80;99.90;;;;;;10270621;28;20296;-85
2022/06/09 19:20:16;;;;;;;10.77;9.68;;;21.00;99.90;;;;;;10261238;28;20284;-85
2022/06/09 19:25:19;;;;;;;11.02;9.73;;;21.20;99.90;;;;;;10269445;28;20277;-85
2022/06/09 19:30:26;;;;;;;11.35;10.15;;;21.30;99.90;;;;;;10272229;28;20232;-85
2022/06/09 19:35:29;;;;;;;11.98;9.70;;;21.30;99.90;;;;;;10242627;28;20315;-85
2022/06/09 19:40:32;;;;;;;11.93;10.50;;;21.40;99.90;;;;;;10267827;28;20240;-85
2022/06/09 19:45:34;;;;;;;10.00;9.10;;;21.40;99.90;;;;;;10285953;28;20256;-85
2022/06/09 19:50:40;;;;;;;11.00;9.90;;;21.40;99.90;;;;;;10237567;28;20273;-85
2022/06/09 19:55:47;;;;;;;10.38;9.25;;;21.40;99.90;;;;;;10275456;28;20257;-85
2022/06/09 20:00:49;;;;;;;9.43;8.52;;;21.40;99.90;;;;;;10273744;28;20229;-85
2022/06/09 20:05:52;;;;;;;10.38;9.25;;;21.40;99.90;;;;;;10284570;28;20237;-85
2022/06/09 20:10:56;;;;;;;11.52;10.32;;;21.40;99.90;;;;;;10266832;28;20261;-86
2022/06/09 20:15:59;;;;;;;10.05;9.07;;;21.40;99.90;;;;;;10267997;28;20258;-85
2022/06/09 20:21:02;;;;;;;12.20;10.77;;;21.30;99.90;;;;;;10282610;28;20283;-85
2022/06/09 20:26:07;;;;;;;11.00;9.90;;;21.10;99.90;;;;;;10286505;28;20728;-85
2022/06/09 20:31:13;;;;;;;13.60;11.35;;;21.00;99.90;;;;;;10283034;28;20304;-85
2022/06/09 20:36:19;;;;;;;10.57;9.55;;;21.10;99.90;;;;;;10274001;28;20253;-85
2022/06/09 20:41:24;;;;;;;10.20;9.02;;;21.20;99.90;;;;;;10289464;28;20237;-85
2022/06/09 20:46:31;;;;;;;9.73;8.85;;;21.10;99.90;;;;;;10271419;28;20209;-85
2022/06/09 20:51:34;;;;;;;10.30;9.30;;;21.20;99.90;;;;;;10266556;28;20296;-85
2022/06/09 20:56:37;;;;;;;10.07;9.15;;;20.90;99.90;;;;;;10257425;28;20277;-85
2022/06/09 21:01:40;;;;;;;9.40;8.50;;;20.80;99.90;;;;;;10253624;28;20230;-85
2022/06/09 21:06:43;;;;;;;10.32;9.32;;;20.90;99.90;;;;;;10285066;28;20622;-85
2022/06/09 21:22:30;;;;;;;9.02;8.23;;;20.90;99.90;;;;;;10290355;28;20292;-85
2022/06/09 21:27:32;;;;;;;9.68;8.68;;;21.10;99.90;;;;;;10279458;28;20229;-85
2022/06/09 21:32:35;;;;;;;9.05;8.15;;;21.10;99.90;;;;;;10273659;28;20581;-84
2022/06/09 21:37:38;;;;;;;9.48;8.65;;;21.20;99.90;;;;;;10285328;28;20256;-85
2022/06/09 21:42:41;;;;;;;9.30;8.30;;;20.90;99.90;;;;;;10243715;28;20233;-85
2022/06/09 21:47:44;;;;;;;9.80;8.75;;;20.90;99.90;;;;;;10272808;28;20739;-85
2022/06/09 21:52:47;;;;;;;8.52;7.72;;;20.80;99.90;;;;;;10241638;28;20245;-84
2022/06/09 21:57:50;;;;;;;8.52;7.80;;;20.90;99.90;;;;;;10269725;28;20653;-84
2022/06/09 22:02:52;;;;;;;8.45;7.65;;;20.70;99.90;;;;;;10279760;28;20229;-85
2022/06/09 22:07:55;;;;;;;9.40;8.00;;;20.50;99.90;;;;;;10282988;28;20277;-85
2022/06/09 22:12:58;;;;;;;8.75;7.05;;;20.20;99.90;;;;;;10269507;28;20269;-85
2022/06/09 22:18:02;;;;;;;8.35;7.65;;;20.20;99.90;;;;;;10264282;28;20221;-85
2022/06/09 22:23:05;;;;;;;8.65;7.50;;;20.60;99.90;;;;;;10247842;29;20237;-85
2022/06/09 22:28:09;;;;;;;8.02;7.32;;;20.90;99.90;;;;;;10278853;28;20272;-85
2022/06/09 22:33:12;;;;;;;7.72;6.97;;;20.70;99.90;;;;;;10250917;28;20246;-85
2022/06/09 22:38:15;;;;;;;8.63;7.80;;;20.60;99.90;;;;;;10249677;29;20284;-85
2022/06/09 22:43:17;;;;;;;7.43;6.45;;;20.70;99.90;;;;;;10242686;28;20246;-85
2022/06/09 22:48:22;;;;;;;7.63;6.93;;;20.80;99.90;;;;;;10231514;29;20238;-86
2022/06/09 22:53:25;;;;;;;9.13;8.15;;;20.50;99.90;;;;;;10269595;28;20932;-85
2022/06/09 22:58:30;;;;;;;8.70;7.93;;;20.60;99.90;;;;;;10287296;28;20323;-86
2022/06/09 23:03:33;;;;;;;8.00;7.30;;;20.60;99.90;;;;;;10249069;29;20238;-85
2022/06/09 23:08:36;;;;;;;8.15;7.35;;;20.70;99.90;;;;;;10259124;28;20691;-86
2022/06/09 23:13:39;;;;;;;9.18;8.23;;;20.60;99.90;;;;;;10260192;28;20268;-85
2022/06/09 23:18:43;;;;;;;9.98;5.47;;;20.80;99.90;;;;;;10258069;28;20269;-85
2022/06/09 23:23:46;;;;;;;7.63;7.00;;;20.70;99.90;;;;;;10230450;29;20293;-85
2022/06/09 23:28:49;;;;;;;7.95;7.20;;;20.40;99.90;;;;;;10262596;28;20237;-85
2022/06/09 23:33:52;;;;;;;7.53;6.72;;;20.50;99.90;;;;;;10251509;28;20254;-86
2022/06/09 23:38:55;;;;;;;8.25;7.55;;;20.40;99.90;;;;;;10247679;28;20206;-85
2022/06/09 23:43:57;;;;;;;7.28;6.68;;;20.70;99.90;;;;;;10267996;28;20237;-85
2022/06/09 23:49:03;;;;;;;7.28;6.60;;;20.50;99.90;;;;;;10284433;28;20237;-85
2022/06/09 23:54:05;;;;;;;7.80;7.10;;;20.70;99.90;;;;;;10284900;28;20241;-85
2022/06/09 23:59:09;;;;;;;6.95;6.25;;;20.20;99.90;;;;;;10285242;28;20216;-85
